Muddy, IL (62965)

5:10 PM CDT on September 01, 2014 (GMT -0500)
KILHARRI2 | Change Station
CLOSE
Current Station
Personal Weather Station
Location: Harrisburg, IL
Elevation: 400 ft
Nearby Weather Stations
Active Advisory: Lake Wind Advisory

Elev 400 ft 37.74 °N, 88.54 °W | Updated 10 minutes ago

Scattered Clouds
Scattered Clouds
84.3 °F
Feels Like 88 °F
N
4.0
Wind Variable Wind from WNW
Gusts 17.0 mph

Today
High -- | Low -- °F
--% Chance of Precip.
Yesterday
High -- | Low -- °F
Precip. -- in
6:24 AM 7:23 PM
Waxing Crescent, 44% visible
Pressure 29.95 in
Visibility 10.0 miles
Clouds Scattered Clouds 4000 ft
Scattered Clouds 8500 ft
Heat Index 88 °F
Dew Point 68 °F
Humidity 59%
Rainfall 0.00 in
Snow Depth Not available.
UV 2 out of 12
Pollen 11.00 out of 12
Air Quality Not available.
Flu Activity Not available.
METAR KHSB 012155Z AUTO 26010KT 10SM SCT040 SCT085 28/21 A2995

More Conditions Fewer Conditions

Pressure 29.95 in
Visibility 10.0 miles
Clouds Scattered Clouds 4000 ft
Scattered Clouds 8500 ft
Heat Index 88 °F
Dew Point 68 °F
Humidity 59%
Rainfall 0.00 in
Snow Depth Not available.
UV 2 out of 12
Pollen 11.00 out of 12
Air Quality Not available.
Flu Activity Not available.
METAR KHSB 012155Z AUTO 26010KT 10SM SCT040 SCT085 28/21 A2995

More Conditions Fewer Conditions

10-Day Weather Forecast

Almanac

Astronomy

Sep. 01, 2014 Rise Set
Actual Time 6:24 AM CDT 7:23 PM CDT
Civil Twilight 5:57 AM CDT 7:50 PM CDT
Nautical Twilight 5:25 AM CDT 8:21 PM CDT
Astronomical Twilight 4:52 AM CDT 8:54 PM CDT
Moon 1:02 PM CDT 11:31 PM CDT
Length of Visible Light 13h 52m
Length of Day
12h 59m
Tomorrow will be 2m 21s shorter.
Waxing Crescent, 44% of the Moon is Illuminated
Today
Waxing Crescent
Sep 2
First Quarter
Sep 8
Full
Sep 15
Last Quarter
Sep 24
New

Today's Extremes

State Highs State Lows

Community

WunderPhotos

Upload Photos

1,749,420 photos uploaded!

Nearby

Snow Depth

Station Depth Elevation
No new snow has been reported.

Earthquake Activity

City Distance Mag. Time & Date
Tiptonville, Tennessee 109 miles 2.9 11:19 PM CDT
2014-08-31
Minimum magnitude displayed is 2.5.

Coastal Water Temperatures

Place Temperature
No Stations Reporting

Nearby Weather Stations